Time;durP1;ratioP1;P1;durP2;ratioP2;P2;SDS_P1;SDS_P2;PMS_P1;PMS_P2;Temp;Humidity;BMP_temperature;BMP_pressure;BME280_temperature;BME280_humidity;BME280_pressure;Samples;Min_cycle;Max_cycle;Signal;HPM_P1;HPM_P2
2023/07/11 00:02:09;;;;;;;4.63;2.22;;;16.20;99.90;;;;;;5021902;28;20037;-81
2023/07/11 00:04:36;;;;;;;3.60;2.10;;;16.20;99.90;;;;;;5028941;28;20029;-81
2023/07/11 00:07:02;;;;;;;5.40;2.03;;;16.20;99.90;;;;;;5009185;28;20396;-81
2023/07/11 00:09:27;;;;;;;3.10;2.40;;;16.30;99.90;;;;;;5023272;28;20041;-81
2023/07/11 00:11:53;;;;;;;5.85;1.80;;;16.30;99.90;;;;;;5026213;28;20076;-81
2023/07/11 00:14:19;;;;;;;4.10;2.13;;;16.30;99.90;;;;;;5028270;28;20061;-81
2023/07/11 00:16:45;;;;;;;4.28;2.10;;;16.30;99.90;;;;;;5004948;28;20081;-81
2023/07/11 00:19:10;;;;;;;3.58;1.85;;;16.30;99.90;;;;;;5039308;28;20067;-81
2023/07/11 00:21:36;;;;;;;2.35;1.77;;;16.30;99.90;;;;;;5040292;28;20037;-81
2023/07/11 00:24:05;;;;;;;3.38;2.00;;;16.10;99.90;;;;;;5053356;28;20037;-81
2023/07/11 00:26:32;;;;;;;4.70;2.10;;;16.20;99.90;;;;;;5022989;28;20171;-81
2023/07/11 00:29:19;;;;;;;3.92;2.25;;;16.20;99.90;;;;;;5023309;28;20034;-81
2023/07/11 00:31:45;;;;;;;3.20;2.15;;;16.20;99.90;;;;;;5002854;28;20081;-81
2023/07/11 00:34:11;;;;;;;3.67;1.88;;;16.20;99.90;;;;;;5040875;28;20083;-81
2023/07/11 00:36:37;;;;;;;4.97;1.70;;;16.20;99.90;;;;;;5024911;28;20037;-81
2023/07/11 00:39:04;;;;;;;3.33;2.15;;;16.30;99.90;;;;;;5029183;28;20567;-81
2023/07/11 00:41:30;;;;;;;2.80;2.28;;;16.20;99.90;;;;;;5048905;28;20060;-81
2023/07/11 00:43:56;;;;;;;2.88;1.98;;;16.20;99.90;;;;;;5009459;28;20453;-81
2023/07/11 00:46:22;;;;;;;4.93;2.13;;;16.10;99.90;;;;;;5023784;28;20048;-81
2023/07/11 00:48:52;;;;;;;3.58;2.05;;;16.20;99.90;;;;;;5019277;28;20033;-81
2023/07/11 00:51:37;;;;;;;2.78;1.73;;;16.20;99.90;;;;;;5019132;28;20037;-81
2023/07/11 00:54:07;;;;;;;5.25;2.05;;;16.20;99.90;;;;;;5003840;28;20037;-81
2023/07/11 00:56:38;;;;;;;2.83;2.00;;;16.20;99.90;;;;;;5024795;28;20041;-81
2023/07/11 00:59:04;;;;;;;4.93;1.77;;;16.20;99.90;;;;;;5041900;28;20636;-81
2023/07/11 01:01:31;;;;;;;5.85;2.13;;;16.30;99.90;;;;;;5020540;28;20509;-81
2023/07/11 01:03:57;;;;;;;4.97;2.05;;;16.20;99.90;;;;;;5018639;28;20046;-81
2023/07/11 01:06:27;;;;;;;3.78;2.28;;;16.20;99.90;;;;;;5021742;28;20684;-81
2023/07/11 01:08:54;;;;;;;6.38;2.08;;;16.20;99.90;;;;;;5051953;28;20037;-81
2023/07/11 01:11:22;;;;;;;3.90;2.08;;;16.20;99.90;;;;;;5004941;28;20189;-81
2023/07/11 01:13:48;;;;;;;4.88;2.03;;;16.20;99.90;;;;;;5025666;28;20276;-81
2023/07/11 01:16:14;;;;;;;3.55;1.92;;;16.20;99.90;;;;;;5022461;28;20048;-81
2023/07/11 01:18:40;;;;;;;2.97;1.73;;;16.20;99.90;;;;;;5028657;28;20121;-81
2023/07/11 01:21:06;;;;;;;4.05;2.10;;;16.10;99.90;;;;;;5053418;28;20484;-81
2023/07/11 01:23:33;;;;;;;3.38;1.80;;;16.10;99.90;;;;;;5007489;28;20067;-81
2023/07/11 01:26:05;;;;;;;3.25;2.20;;;16.10;99.90;;;;;;5016024;28;20362;-81
2023/07/11 01:28:30;;;;;;;2.42;1.88;;;16.10;99.90;;;;;;5030804;28;20399;-81
2023/07/11 01:30:56;;;;;;;4.00;2.00;;;16.10;99.90;;;;;;5023578;28;20281;-80
2023/07/11 01:33:24;;;;;;;3.17;1.90;;;16.30;99.90;;;;;;5002295;28;20079;-81
2023/07/11 01:35:52;;;;;;;4.35;1.85;;;16.30;99.90;;;;;;5005845;28;20519;-81
2023/07/11 01:38:19;;;;;;;2.92;1.90;;;16.40;99.90;;;;;;5036143;28;20037;-81
2023/07/11 01:40:46;;;;;;;2.70;1.90;;;16.40;99.90;;;;;;5021539;28;20041;-81
2023/07/11 01:43:12;;;;;;;4.13;2.20;;;16.40;99.90;;;;;;5017895;28;20485;-81
2023/07/11 01:45:40;;;;;;;3.35;1.80;;;16.50;99.90;;;;;;5017300;28;20124;-81
2023/07/11 01:48:07;;;;;;;2.25;1.60;;;16.50;99.90;;;;;;5015018;28;20037;-81
2023/07/11 01:50:32;;;;;;;4.55;2.25;;;16.50;99.90;;;;;;5000753;28;20115;-81
2023/07/11 01:52:58;;;;;;;4.45;2.50;;;16.60;99.90;;;;;;5037315;28;20653;-81
2023/07/11 01:55:25;;;;;;;4.70;2.28;;;16.60;99.90;;;;;;5044244;28;20452;-81
2023/07/11 01:57:50;;;;;;;4.18;2.10;;;16.50;99.90;;;;;;5017668;28;20037;-81
2023/07/11 02:00:16;;;;;;;5.13;2.65;;;16.60;99.90;;;;;;5020342;28;20485;-81
2023/07/11 02:02:42;;;;;;;4.80;2.47;;;16.60;99.90;;;;;;5001887;28;20044;-81
2023/07/11 02:05:08;;;;;;;4.40;2.78;;;16.50;99.90;;;;;;5010928;28;20037;-81
2023/07/11 02:07:34;;;;;;;11.70;2.55;;;16.50;99.90;;;;;;5033210;28;20033;-81
2023/07/11 02:09:59;;;;;;;7.70;2.83;;;16.50;99.90;;;;;;5017594;28;20045;-81
2023/07/11 02:12:25;;;;;;;5.03;2.60;;;16.50;99.90;;;;;;5023658;28;20269;-81
2023/07/11 02:14:51;;;;;;;4.47;2.70;;;16.50;99.90;;;;;;5021794;28;20349;-81
2023/07/11 02:17:16;;;;;;;7.22;3.30;;;16.40;99.90;;;;;;5047961;28;20045;-81
2023/07/11 02:19:44;;;;;;;6.88;3.78;;;16.50;99.90;;;;;;5052930;28;20039;-81
2023/07/11 02:22:11;;;;;;;4.95;3.10;;;16.40;99.90;;;;;;5021915;28;20350;-81
2023/07/11 02:24:39;;;;;;;6.57;3.58;;;16.40;99.90;;;;;;5016566;28;20180;-81
2023/07/11 02:27:05;;;;;;;8.38;2.95;;;16.30;99.90;;;;;;5022160;28;20657;-81
2023/07/11 02:29:31;;;;;;;4.18;2.92;;;16.30;99.90;;;;;;5020599;28;20469;-80
2023/07/11 02:31:57;;;;;;;4.60;3.15;;;16.30;99.90;;;;;;5014099;28;20049;-81
2023/07/11 02:34:23;;;;;;;4.72;3.20;;;16.30;99.90;;;;;;5022961;28;20029;-81
2023/07/11 02:36:48;;;;;;;5.53;3.30;;;16.30;99.90;;;;;;5016499;28;20124;-81
2023/07/11 02:39:14;;;;;;;5.53;3.08;;;16.20;99.90;;;;;;5037539;28;20029;-81
2023/07/11 02:41:40;;;;;;;8.98;3.50;;;16.10;99.90;;;;;;5022648;28;20045;-80
2023/07/11 02:44:06;;;;;;;7.28;3.25;;;16.10;99.90;;;;;;5023322;28;20033;-81
2023/07/11 02:46:32;;;;;;;4.82;2.88;;;16.10;99.90;;;;;;5015933;28;20137;-81
2023/07/11 02:48:57;;;;;;;6.20;2.92;;;16.20;99.90;;;;;;5023288;28;20117;-81
2023/07/11 02:51:23;;;;;;;4.63;2.67;;;16.20;99.90;;;;;;5009586;28;20112;-81
2023/07/11 02:53:49;;;;;;;6.25;2.92;;;16.20;99.90;;;;;;5009336;28;20452;-81
2023/07/11 02:56:18;;;;;;;4.30;3.00;;;16.10;99.90;;;;;;5018375;28;20079;-81
2023/07/11 02:58:44;;;;;;;6.32;2.80;;;16.20;99.90;;;;;;5027446;28;20044;-81
2023/07/11 03:01:10;;;;;;;5.13;2.92;;;16.20;99.90;;;;;;5024667;28;20124;-81
2023/07/11 03:03:35;;;;;;;5.05;3.22;;;16.20;99.90;;;;;;5015118;28;20056;-80
2023/07/11 03:06:01;;;;;;;6.68;2.88;;;16.20;99.90;;;;;;5051312;28;20302;-81
2023/07/11 03:08:27;;;;;;;6.55;3.38;;;16.20;99.90;;;;;;5026353;28;20030;-80
2023/07/11 03:10:56;;;;;;;9.00;3.40;;;16.20;99.90;;;;;;5017537;28;20041;-81
2023/07/11 03:13:22;;;;;;;5.07;2.90;;;16.20;99.90;;;;;;5021968;28;20519;-80
2023/07/11 03:15:48;;;;;;;6.57;2.67;;;16.20;99.90;;;;;;5041527;28;20041;-80
2023/07/11 03:18:14;;;;;;;6.45;3.10;;;16.20;99.90;;;;;;5028716;28;20056;-80
2023/07/11 03:20:41;;;;;;;4.95;3.20;;;16.20;99.90;;;;;;5038032;28;20033;-80
2023/07/11 03:23:09;;;;;;;3.63;2.40;;;16.20;99.90;;;;;;5026917;28;20388;-81
2023/07/11 03:25:36;;;;;;;5.55;2.75;;;16.10;99.90;;;;;;5000818;28;20045;-80
2023/07/11 03:28:02;;;;;;;4.57;2.50;;;16.10;99.90;;;;;;5023706;28;20106;-81
2023/07/11 03:30:27;;;;;;;5.90;2.72;;;16.10;99.90;;;;;;5023105;28;20152;-81
2023/07/11 03:32:53;;;;;;;5.20;2.72;;;16.10;99.90;;;;;;5035535;28;20425;-81
2023/07/11 03:35:19;;;;;;;6.13;2.25;;;16.10;99.90;;;;;;5020693;28;20272;-80
2023/07/11 03:37:44;;;;;;;5.05;3.00;;;16.10;99.90;;;;;;5026951;28;20559;-80
2023/07/11 03:40:10;;;;;;;4.30;2.50;;;16.10;99.90;;;;;;5016208;28;20140;-80
2023/07/11 03:42:36;;;;;;;5.32;2.33;;;16.10;99.90;;;;;;5047543;28;20099;-81
2023/07/11 03:45:02;;;;;;;4.43;2.38;;;16.20;99.90;;;;;;5054475;28;22145;-81
2023/07/11 03:47:28;;;;;;;4.05;2.40;;;16.10;99.90;;;;;;5020602;28;20030;-81
2023/07/11 03:49:53;;;;;;;3.92;2.22;;;16.20;99.90;;;;;;5005582;28;20400;-81
2023/07/11 03:52:22;;;;;;;5.90;2.70;;;16.20;99.90;;;;;;5007864;28;20209;-81
2023/07/11 03:54:48;;;;;;;3.72;2.80;;;16.20;99.90;;;;;;5025275;28;20041;-81
2023/07/11 03:57:13;;;;;;;4.85;2.55;;;16.20;99.90;;;;;;5040083;28;20037;-80
2023/07/11 03:59:39;;;;;;;4.68;2.40;;;16.20;99.90;;;;;;5017292;28;20195;-81
2023/07/11 04:02:05;;;;;;;4.22;2.78;;;16.30;99.90;;;;;;5017571;28;20135;-81
2023/07/11 04:04:30;;;;;;;4.47;2.40;;;16.30;99.90;;;;;;5026110;28;20171;-81
2023/07/11 04:06:56;;;;;;;5.65;2.53;;;16.30;99.90;;;;;;5049117;28;20578;-81
2023/07/11 04:09:22;;;;;;;4.15;2.33;;;16.30;99.90;;;;;;5048818;28;20030;-80
2023/07/11 04:11:50;;;;;;;4.50;2.40;;;16.30;99.90;;;;;;5051650;28;20413;-80
2023/07/11 04:14:15;;;;;;;5.93;2.53;;;16.40;99.90;;;;;;5018677;28;20459;-80
2023/07/11 04:16:41;;;;;;;5.07;2.38;;;16.40;99.90;;;;;;5026125;28;20037;-80
2023/07/11 04:19:07;;;;;;;6.35;2.45;;;16.40;99.90;;;;;;5012284;28;20049;-80
2023/07/11 04:21:32;;;;;;;5.32;2.90;;;16.40;99.90;;;;;;5051173;28;20116;-81
2023/07/11 04:23:59;;;;;;;3.22;2.20;;;16.40;99.90;;;;;;5019008;28;20317;-80
2023/07/11 04:26:25;;;;;;;4.28;2.33;;;16.40;99.90;;;;;;5010073;28;20258;-80
2023/07/11 04:28:54;;;;;;;4.53;2.35;;;16.50;99.90;;;;;;5024542;28;20211;-80
2023/07/11 04:31:20;;;;;;;5.40;2.50;;;16.50;99.90;;;;;;5019130;28;20488;-80
2023/07/11 04:33:46;;;;;;;7.03;2.70;;;16.40;99.90;;;;;;5020368;28;20044;-80
2023/07/11 04:36:14;;;;;;;4.35;2.72;;;16.50;99.90;;;;;;5056149;28;20090;-81
2023/07/11 04:38:40;;;;;;;10.63;3.10;;;16.50;99.90;;;;;;5001175;28;20471;-80
2023/07/11 04:41:06;;;;;;;5.72;3.10;;;16.60;99.90;;;;;;5008934;28;20102;-80
2023/07/11 04:43:33;;;;;;;4.88;3.05;;;16.60;99.90;;;;;;5024963;28;20058;-81
2023/07/11 04:46:00;;;;;;;5.72;2.83;;;16.60;99.90;;;;;;5023812;28;20135;-80
2023/07/11 04:48:26;;;;;;;6.47;3.50;;;16.60;99.90;;;;;;5020435;28;20203;-80
2023/07/11 04:51:01;;;;;;;7.18;2.88;;;16.60;99.90;;;;;;4998660;28;20106;-80
2023/07/11 04:53:27;;;;;;;5.68;3.40;;;16.60;99.90;;;;;;5017069;28;20114;-80
2023/07/11 04:56:05;;;;;;;5.68;3.20;;;16.70;99.90;;;;;;5010661;28;20435;-80
2023/07/11 04:58:32;;;;;;;5.95;3.30;;;16.70;99.90;;;;;;5018637;28;20039;-80
2023/07/11 05:01:02;;;;;;;7.47;3.83;;;16.80;99.90;;;;;;5033271;28;20516;-80
2023/07/11 05:03:28;;;;;;;6.53;3.72;;;17.00;99.90;;;;;;5020785;28;20073;-80
2023/07/11 05:05:57;;;;;;;7.75;3.90;;;17.20;99.90;;;;;;5008489;28;20033;-80
2023/07/11 05:08:23;;;;;;;8.02;4.03;;;17.40;99.90;;;;;;5020577;28;20030;-80
2023/07/11 05:10:58;;;;;;;5.80;3.60;;;17.70;99.90;;;;;;5029428;28;20551;-80
2023/07/11 05:13:26;;;;;;;6.78;4.13;;;17.90;99.90;;;;;;5023612;28;20042;-80
2023/07/11 05:15:57;;;;;;;5.13;3.72;;;18.10;99.90;;;;;;5033120;28;20045;-80
2023/07/11 05:18:23;;;;;;;8.45;4.65;;;18.10;99.90;;;;;;5015731;28;20043;-81
2023/07/11 05:20:55;;;;;;;9.98;4.10;;;18.30;99.90;;;;;;5020568;28;20037;-80
2023/07/11 05:23:29;;;;;;;8.93;4.30;;;18.30;99.90;;;;;;5023111;28;20116;-80
2023/07/11 05:25:55;;;;;;;8.73;4.00;;;18.50;99.90;;;;;;5031725;28;20094;-80
2023/07/11 05:28:25;;;;;;;9.40;4.75;;;18.60;99.90;;;;;;5008509;28;20496;-81
2023/07/11 05:30:51;;;;;;;6.38;4.05;;;18.60;99.90;;;;;;5024720;28;20041;-80
2023/07/11 05:33:17;;;;;;;11.13;4.72;;;18.70;99.90;;;;;;5018759;28;20145;-80
2023/07/11 05:35:56;;;;;;;6.68;4.20;;;19.00;99.90;;;;;;5023565;28;20037;-81
2023/07/11 05:38:22;;;;;;;8.32;4.15;;;19.10;99.90;;;;;;5035299;28;20747;-81
2023/07/11 05:40:48;;;;;;;8.98;4.18;;;19.10;99.90;;;;;;5002914;28;20140;-80
2023/07/11 05:43:13;;;;;;;7.25;4.13;;;19.10;99.90;;;;;;5023018;28;20124;-80
2023/07/11 05:45:39;;;;;;;9.48;3.92;;;19.10;99.90;;;;;;5036918;28;20044;-80
2023/07/11 05:48:05;;;;;;;7.57;4.30;;;19.10;99.90;;;;;;5016338;28;20434;-80
2023/07/11 05:50:30;;;;;;;9.25;4.15;;;19.30;99.90;;;;;;5022867;28;20049;-80
2023/07/11 05:52:56;;;;;;;8.57;4.30;;;19.40;99.90;;;;;;5046872;28;20063;-80
2023/07/11 05:55:22;;;;;;;7.70;3.78;;;19.40;99.90;;;;;;5018276;28;20335;-81
2023/07/11 05:57:47;;;;;;;5.00;3.97;;;19.60;99.90;;;;;;5023051;28;20680;-80
2023/07/11 06:00:13;;;;;;;7.97;4.22;;;19.70;99.90;;;;;;5026432;28;20079;-80
2023/07/11 06:02:39;;;;;;;7.88;4.30;;;19.70;99.90;;;;;;5031235;28;20033;-80
2023/07/11 06:05:05;;;;;;;6.60;3.72;;;19.70;99.90;;;;;;5012313;28;20612;-81
2023/07/11 06:07:30;;;;;;;6.63;4.18;;;19.70;99.90;;;;;;5008075;28;20433;-80
2023/07/11 06:09:56;;;;;;;7.85;4.10;;;19.70;99.90;;;;;;5047307;28;20038;-80
2023/07/11 06:12:22;;;;;;;10.55;4.50;;;19.70;99.90;;;;;;5014248;28;20084;-81
2023/07/11 06:14:51;;;;;;;11.38;4.30;;;19.90;99.90;;;;;;5048043;28;20459;-80
2023/07/11 06:17:17;;;;;;;7.43;3.97;;;20.10;99.90;;;;;;5018798;28;20116;-80
2023/07/11 06:19:43;;;;;;;8.93;4.55;;;20.30;99.90;;;;;;5005312;28;20075;-80
2023/07/11 06:22:09;;;;;;;7.20;4.10;;;20.40;99.90;;;;;;5035114;28;20128;-80
2023/07/11 06:24:36;;;;;;;6.68;3.88;;;20.60;99.90;;;;;;5002717;28;20052;-81
2023/07/11 06:27:02;;;;;;;7.70;4.32;;;20.60;99.90;;;;;;5047160;28;20638;-81
2023/07/11 06:29:29;;;;;;;6.18;3.80;;;20.70;99.90;;;;;;5024378;28;20072;-80
2023/07/11 06:31:55;;;;;;;9.85;3.90;;;20.90;99.90;;;;;;5016463;28;20037;-80
2023/07/11 06:34:21;;;;;;;5.72;3.90;;;20.80;99.90;;;;;;5022471;28;20302;-80
2023/07/11 06:36:47;;;;;;;6.43;3.70;;;20.80;99.90;;;;;;5023552;28;20029;-80
2023/07/11 06:39:13;;;;;;;7.75;3.60;;;20.80;99.90;;;;;;5054412;28;20041;-80
2023/07/11 06:41:38;;;;;;;5.22;3.67;;;20.70;99.90;;;;;;5026162;28;20187;-80
2023/07/11 06:44:08;;;;;;;9.20;3.78;;;20.90;99.90;;;;;;5055020;28;20201;-81
2023/07/11 06:46:35;;;;;;;4.72;3.30;;;20.80;99.90;;;;;;5021806;28;20038;-80
2023/07/11 06:49:01;;;;;;;6.40;3.55;;;20.90;99.90;;;;;;5015783;28;20037;-80
2023/07/11 06:51:28;;;;;;;6.63;3.55;;;21.00;99.90;;;;;;5012253;28;20695;-80
2023/07/11 06:53:55;;;;;;;7.55;3.70;;;21.30;99.90;;;;;;5003324;28;22288;-80
2023/07/11 06:56:22;;;;;;;8.57;4.10;;;21.40;99.90;;;;;;5024840;28;20137;-80
2023/07/11 06:58:48;;;;;;;6.38;3.78;;;21.40;99.90;;;;;;5054507;28;20466;-81
2023/07/11 07:01:15;;;;;;;5.85;3.80;;;21.70;99.90;;;;;;5042296;28;20041;-80
2023/07/11 07:03:40;;;;;;;4.85;3.60;;;21.80;99.90;;;;;;5019014;28;20124;-80
2023/07/11 07:06:09;;;;;;;6.03;3.70;;;21.80;99.90;;;;;;5055796;28;20087;-80
2023/07/11 07:08:34;;;;;;;9.95;3.75;;;22.00;99.90;;;;;;5016858;28;20033;-80
2023/07/11 07:11:03;;;;;;;6.55;3.60;;;22.10;99.90;;;;;;5035375;28;20041;-80
2023/07/11 07:13:29;;;;;;;7.72;3.60;;;22.00;99.90;;;;;;5057186;28;20451;-80
2023/07/11 07:15:57;;;;;;;7.70;3.83;;;22.40;99.90;;;;;;5010669;28;20147;-81
2023/07/11 07:18:24;;;;;;;5.25;3.42;;;22.40;99.90;;;;;;5018657;28;20049;-80
2023/07/11 07:20:51;;;;;;;9.05;3.50;;;22.60;99.90;;;;;;5017103;28;20119;-80
2023/07/11 07:23:17;;;;;;;6.22;3.35;;;22.70;99.90;;;;;;5010452;28;20457;-80
2023/07/11 07:25:50;;;;;;;5.03;3.15;;;22.90;99.90;;;;;;5003665;28;20703;-80
2023/07/11 07:28:16;;;;;;;5.55;3.13;;;23.10;99.90;;;;;;5031556;28;20049;-80
2023/07/11 07:30:46;;;;;;;7.20;3.78;;;23.10;99.90;;;;;;5003124;28;20238;-80
2023/07/11 07:33:12;;;;;;;6.80;3.58;;;23.40;99.90;;;;;;5052954;28;20041;-81
2023/07/11 07:35:39;;;;;;;5.72;3.15;;;23.50;99.90;;;;;;5010315;28;20534;-80
2023/07/11 07:38:05;;;;;;;6.18;3.35;;;23.80;99.90;;;;;;5037355;28;20387;-80
2023/07/11 07:40:30;;;;;;;7.07;3.30;;;23.80;99.90;;;;;;5018269;28;20045;-80
2023/07/11 07:42:56;;;;;;;5.15;2.90;;;23.80;99.90;;;;;;5019215;28;20567;-80
2023/07/11 07:45:21;;;;;;;5.38;2.95;;;23.70;99.90;;;;;;5027273;28;20064;-80
2023/07/11 07:47:47;;;;;;;6.20;3.17;;;23.80;99.90;;;;;;5034305;28;20065;-80
2023/07/11 07:50:13;;;;;;;5.78;3.30;;;23.80;99.90;;;;;;5025924;28;20166;-80
2023/07/11 07:52:39;;;;;;;4.35;3.30;;;23.80;99.90;;;;;;5040943;28;20559;-80
2023/07/11 07:55:04;;;;;;;5.47;3.38;;;23.80;99.90;;;;;;5030999;28;20448;-80
2023/07/11 07:57:30;;;;;;;5.40;2.97;;;23.80;99.90;;;;;;5023166;28;20731;-81
2023/07/11 07:59:56;;;;;;;9.10;3.03;;;23.80;99.90;;;;;;5007695;28;20055;-80
2023/07/11 08:02:24;;;;;;;7.10;2.83;;;24.00;99.90;;;;;;5019994;28;20325;-80
2023/07/11 08:04:50;;;;;;;5.57;3.30;;;24.20;99.90;;;;;;5005637;28;20130;-80
2023/07/11 08:07:17;;;;;;;5.80;2.95;;;24.30;99.90;;;;;;5019814;28;20050;-81
2023/07/11 08:09:44;;;;;;;6.15;3.05;;;24.40;99.90;;;;;;5019324;28;20060;-80
2023/07/11 08:12:11;;;;;;;6.40;3.25;;;24.40;99.90;;;;;;5051180;28;20147;-80
2023/07/11 08:14:38;;;;;;;6.45;3.72;;;24.40;99.90;;;;;;5032997;28;20064;-80
2023/07/11 08:17:05;;;;;;;6.57;3.00;;;24.60;99.90;;;;;;5019168;28;20373;-80
2023/07/11 08:19:31;;;;;;;7.60;3.67;;;24.60;99.90;;;;;;5018978;28;20386;-80
2023/07/11 08:21:57;;;;;;;5.45;2.63;;;24.90;99.90;;;;;;5009739;28;20041;-81
2023/07/11 08:24:22;;;;;;;6.10;2.88;;;25.00;99.90;;;;;;5038390;28;20144;-80
2023/07/11 08:26:48;;;;;;;6.28;3.22;;;25.30;99.90;;;;;;5050022;28;20041;-80
2023/07/11 08:29:14;;;;;;;6.93;3.45;;;25.30;99.90;;;;;;5025177;28;20115;-80
2023/07/11 08:31:39;;;;;;;6.70;3.35;;;25.00;99.90;;;;;;5016332;28;20298;-80
2023/07/11 08:34:05;;;;;;;4.80;2.88;;;25.20;99.90;;;;;;5021564;28;20507;-80
2023/07/11 08:36:31;;;;;;;8.65;2.72;;;25.20;99.90;;;;;;5017914;28;20122;-80
2023/07/11 08:38:56;;;;;;;4.00;2.45;;;25.60;99.90;;;;;;5020844;28;20037;-80
2023/07/11 08:41:46;;;;;;;4.55;2.30;;;25.60;99.90;;;;;;5019333;28;20049;-80
2023/07/11 08:44:35;;;;;;;4.53;2.60;;;25.70;99.90;;;;;;5023267;28;20041;-80
2023/07/11 08:47:23;;;;;;;6.03;3.30;;;25.60;99.90;;;;;;5011737;28;20052;-79
2023/07/11 08:49:58;;;;;;;5.80;2.97;;;25.50;99.90;;;;;;5052023;28;20334;-81
2023/07/11 08:52:25;;;;;;;5.13;2.67;;;25.20;99.90;;;;;;5010058;28;20037;-80
2023/07/11 08:55:23;;;;;;;5.65;3.05;;;25.40;99.90;;;;;;5047951;28;20029;-81
2023/07/11 08:58:08;;;;;;;5.47;2.60;;;25.40;99.90;;;;;;5040659;28;20121;-80
2023/07/11 09:00:34;;;;;;;5.75;2.78;;;25.40;99.90;;;;;;5055483;28;20051;-80
2023/07/11 09:03:14;;;;;;;5.55;2.30;;;25.30;99.90;;;;;;4996039;28;20393;-80
2023/07/11 09:05:53;;;;;;;4.85;2.40;;;25.40;99.90;;;;;;5036957;28;20242;-80
2023/07/11 09:08:20;;;;;;;4.57;2.55;;;25.50;99.90;;;;;;5018135;28;20535;-80
2023/07/11 09:10:58;;;;;;;6.55;2.45;;;25.50;99.90;;;;;;5017057;28;20199;-80
2023/07/11 09:13:50;;;;;;;4.15;2.20;;;25.80;99.90;;;;;;5016066;28;20450;-81
2023/07/11 09:16:37;;;;;;;5.07;2.55;;;26.30;99.90;;;;;;5048793;28;20124;-80
2023/07/11 09:19:29;;;;;;;7.43;2.53;;;26.40;99.90;;;;;;5049565;28;20068;-81
2023/07/11 09:22:33;;;;;;;6.15;2.05;;;26.60;78.40;;;;;;5023955;28;20049;-81
2023/07/11 09:25:09;;;;;;;4.70;2.33;;;26.90;99.90;;;;;;5030940;28;20049;-80
2023/07/11 09:27:46;;;;;;;4.95;2.20;;;27.10;1.00;;;;;;5019764;28;20430;-80
2023/07/11 09:30:25;;;;;;;4.00;1.90;;;27.20;99.90;;;;;;5019963;28;20038;-81
2023/07/11 09:32:51;;;;;;;4.20;1.95;;;27.00;99.90;;;;;;5014029;28;20175;-80
2023/07/11 09:35:32;;;;;;;4.28;2.00;;;27.20;99.90;;;;;;5035520;28;20529;-80
2023/07/11 09:38:10;;;;;;;5.30;2.20;;;27.40;99.90;;;;;;4999954;28;20120;-81
2023/07/11 09:40:48;;;;;;;4.50;1.95;;;27.30;99.90;;;;;;5047190;28;20056;-80
2023/07/11 09:43:13;;;;;;;5.45;2.40;;;27.30;99.90;;;;;;5052534;28;20065;-80
2023/07/11 09:45:44;;;;;;;4.40;1.90;;;27.50;99.90;;;;;;5023246;28;20037;-80
2023/07/11 09:48:34;;;;;;;2.63;1.70;;;27.50;1.00;;;;;;5016208;28;20249;-80
2023/07/11 09:51:00;;;;;;;5.13;2.20;;;27.70;1.00;;;;;;5017218;28;20041;-81
2023/07/11 09:53:29;;;;;;;4.40;1.95;;;27.80;99.90;;;;;;5053436;28;20083;-80
2023/07/11 09:55:59;;;;;;;3.83;1.58;;;27.40;34.40;;;;;;5032172;28;20049;-80
2023/07/11 09:58:33;;;;;;;2.95;1.60;;;27.20;99.90;;;;;;5019094;28;20444;-81
2023/07/11 10:01:03;;;;;;;6.40;2.27;;;27.10;99.90;;;;;;5013986;28;20136;-80
2023/07/11 10:03:34;;;;;;;3.97;1.83;;;27.00;99.90;;;;;;5019508;28;20295;-81
2023/07/11 10:06:01;;;;;;;4.13;1.98;;;27.40;99.90;;;;;;5024377;28;20028;-81
2023/07/11 10:08:30;;;;;;;10.60;2.10;;;27.40;99.90;;;;;;5024656;28;20079;-80
2023/07/11 10:11:04;;;;;;;5.93;2.00;;;27.40;99.90;;;;;;5006232;28;20053;-80
2023/07/11 10:13:29;;;;;;;3.97;1.92;;;27.30;40.30;;;;;;5020430;28;20041;-80
2023/07/11 10:15:57;;;;;;;3.03;1.60;;;27.50;99.90;;;;;;5023581;28;20106;-81
2023/07/11 10:18:30;;;;;;;2.70;1.80;;;27.70;99.90;;;;;;5034083;28;20048;-80
2023/07/11 10:21:21;;;;;;;5.32;2.10;;;27.70;99.90;;;;;;5023620;28;20049;-81
2023/07/11 10:23:49;;;;;;;4.72;2.28;;;27.70;99.90;;;;;;5008153;28;20057;-80
2023/07/11 10:26:30;;;;;;;5.13;1.90;;;28.10;99.90;;;;;;5015545;28;20297;-80
2023/07/11 10:29:14;;;;;;;4.05;2.10;;;28.40;99.90;;;;;;5005283;28;20041;-81
2023/07/11 10:32:05;;;;;;;4.25;2.00;;;28.40;1.00;;;;;;5023263;28;20712;-81
2023/07/11 10:34:39;;;;;;;3.85;1.65;;;28.60;99.90;;;;;;5013820;28;20053;-80
2023/07/11 10:37:12;;;;;;;6.05;2.25;;;28.60;99.90;;;;;;5001653;28;20079;-80
2023/07/11 10:39:47;;;;;;;5.70;2.03;;;29.00;99.90;;;;;;5036228;28;20060;-81
2023/07/11 10:42:37;;;;;;;6.50;2.65;;;29.40;99.90;;;;;;5015687;28;20114;-81
2023/07/11 10:45:26;;;;;;;5.25;1.95;;;29.30;99.90;;;;;;5021152;28;20496;-80
2023/07/11 10:48:04;;;;;;;6.78;2.38;;;29.30;99.90;;;;;;4995497;28;20041;-81
2023/07/11 10:50:37;;;;;;;3.45;1.90;;;29.60;1.00;;;;;;5004501;28;20089;-80
2023/07/11 10:53:15;;;;;;;4.50;1.67;;;29.60;68.00;;;;;;5022186;28;20029;-80
2023/07/11 10:55:48;;;;;;;4.20;1.92;;;29.80;2.40;;;;;;5047235;28;20295;-81
2023/07/11 10:58:18;;;;;;;3.40;1.90;;;29.30;1.00;;;;;;5023264;28;20029;-80
2023/07/11 11:01:29;;;;;;;4.95;1.85;;;29.50;1.00;;;;;;5027960;28;20080;-81
2023/07/11 11:04:18;;;;;;;4.53;1.77;;;29.50;1.00;;;;;;4980345;28;20125;-81
2023/07/11 11:06:50;;;;;;;4.28;2.13;;;29.80;99.90;;;;;;4964872;28;20584;-81
2023/07/11 11:09:40;;;;;;;3.83;1.70;;;29.90;99.90;;;;;;5008659;28;20287;-81
2023/07/11 11:12:31;;;;;;;4.38;1.60;;;30.10;99.90;;;;;;5050192;28;20056;-81
2023/07/11 11:15:20;;;;;;;5.43;1.73;;;29.40;99.90;;;;;;5039223;28;20407;-81
2023/07/11 11:17:53;;;;;;;4.47;1.70;;;29.50;99.90;;;;;;5021367;28;20179;-81
2023/07/11 11:20:26;;;;;;;2.80;1.50;;;29.40;99.90;;;;;;5020688;28;20040;-80
2023/07/11 11:23:36;;;;;;;4.53;2.05;;;29.70;99.90;;;;;;5001599;28;20085;-81
2023/07/11 11:26:29;;;;;;;2.88;1.85;;;29.80;99.90;;;;;;5002287;28;20057;-80
2023/07/11 11:29:04;;;;;;;3.60;1.45;;;29.60;1.00;;;;;;5036508;28;20056;-81
2023/07/11 11:31:32;;;;;;;2.55;1.52;;;30.00;33.60;;;;;;5007882;28;20039;-81
2023/07/11 11:33:57;;;;;;;4.10;1.63;;;30.30;43.30;;;;;;5032472;28;20211;-81
2023/07/11 11:36:28;;;;;;;4.30;1.77;;;30.50;41.00;;;;;;5028520;28;20048;-80
2023/07/11 11:39:02;;;;;;;3.90;1.80;;;30.20;1.00;;;;;;5009087;28;20040;-81
2023/07/11 11:41:41;;;;;;;2.70;1.67;;;30.20;1.00;;;;;;5033610;28;20077;-81
2023/07/11 11:44:15;;;;;;;2.17;1.52;;;30.10;1.00;;;;;;5026451;28;20128;-81
2023/07/11 11:46:42;;;;;;;4.07;1.70;;;30.50;1.00;;;;;;5028603;28;20180;-81
2023/07/11 11:49:11;;;;;;;6.80;1.80;;;30.30;99.90;;;;;;5050312;28;20050;-81
2023/07/11 11:51:37;;;;;;;2.70;1.90;;;30.40;1.00;;;;;;5022600;28;20051;-81
2023/07/11 11:54:24;;;;;;;3.92;1.67;;;30.20;99.90;;;;;;5054850;28;20064;-81
2023/07/11 11:56:55;;;;;;;2.85;1.50;;;30.00;99.90;;;;;;5019398;28;20037;-81
2023/07/11 11:59:31;;;;;;;2.17;1.58;;;31.00;99.90;;;;;;5011901;28;20096;-80
2023/07/11 12:02:10;;;;;;;2.47;1.70;;;30.90;1.00;;;;;;5034894;28;20211;-80
2023/07/11 12:04:42;;;;;;;4.32;1.70;;;31.10;99.90;;;;;;5003127;28;20171;-81
2023/07/11 12:07:11;;;;;;;4.75;1.50;;;30.80;99.90;;;;;;5024780;28;20515;-81
2023/07/11 12:09:39;;;;;;;2.10;1.33;;;31.10;99.90;;;;;;5018573;28;20049;-81
2023/07/11 12:12:15;;;;;;;4.45;1.60;;;31.00;99.90;;;;;;5035586;28;20045;-81
2023/07/11 12:15:01;;;;;;;4.95;1.77;;;31.30;99.90;;;;;;5054208;28;20436;-81
2023/07/11 12:17:29;;;;;;;2.75;1.60;;;30.40;99.90;;;;;;5021304;28;20048;-81
2023/07/11 12:20:04;;;;;;;2.70;1.60;;;30.70;99.90;;;;;;5039495;28;20550;-80
2023/07/11 12:22:36;;;;;;;4.32;2.08;;;30.40;99.90;;;;;;5058881;28;20519;-81
2023/07/11 12:25:27;;;;;;;4.25;1.90;;;30.60;99.90;;;;;;5032689;28;20040;-81
2023/07/11 12:27:53;;;;;;;3.55;1.40;;;30.40;99.90;;;;;;5010691;28;20060;-81
2023/07/11 12:30:43;;;;;;;4.13;1.60;;;30.60;99.90;;;;;;5032899;28;20485;-81
2023/07/11 12:33:32;;;;;;;4.45;1.90;;;30.60;99.90;;;;;;5019313;28;20096;-80
2023/07/11 12:36:30;;;;;;;3.47;1.95;;;31.10;99.90;;;;;;5037844;28;20048;-80
2023/07/11 12:39:09;;;;;;;3.20;1.73;;;31.30;99.90;;;;;;5036279;28;20045;-81
2023/07/11 12:41:52;;;;;;;3.00;1.90;;;31.20;99.90;;;;;;5015880;28;20132;-81
2023/07/11 12:44:19;;;;;;;3.63;1.70;;;31.10;99.90;;;;;;5010035;28;20215;-81
2023/07/11 12:46:48;;;;;;;2.50;1.63;;;30.90;99.90;;;;;;5030279;28;20060;-81
2023/07/11 12:49:26;;;;;;;3.20;1.83;;;31.00;99.90;;;;;;5018247;28;20342;-81
2023/07/11 12:52:02;;;;;;;3.85;1.77;;;30.20;99.90;;;;;;5019136;28;20579;-81
2023/07/11 12:54:28;;;;;;;2.30;1.52;;;30.20;99.90;;;;;;5024629;28;20037;-81
2023/07/11 12:56:54;;;;;;;4.07;1.85;;;30.30;99.90;;;;;;5015624;28;20041;-81
2023/07/11 12:59:22;;;;;;;4.90;1.80;;;30.10;99.90;;;;;;5006762;28;20046;-81
2023/07/11 13:01:49;;;;;;;4.72;2.00;;;30.00;99.90;;;;;;5018828;28;20102;-81
2023/07/11 13:04:33;;;;;;;3.45;1.80;;;30.10;99.90;;;;;;5015031;28;20450;-81